sensor_id;sensor_type;location;lat;lon;timestamp;pressure;altitude;pressure_sealevel;temperature;humidity
51229;BME280;37304;52.216;6.874;2023-02-10T00:02:50;103187.94;;;0.12;100.00
51229;BME280;37304;52.216;6.874;2023-02-10T00:07:50;103187.06;;;0.11;100.00
51229;BME280;37304;52.216;6.874;2023-02-10T00:12:50;103183.81;;;0.14;100.00
51229;BME280;37304;52.216;6.874;2023-02-10T00:17:51;103203.88;;;0.08;100.00
51229;BME280;37304;52.216;6.874;2023-02-10T00:22:51;103203.00;;;0.07;100.00
51229;BME280;37304;52.216;6.874;2023-02-10T00:27:51;103202.09;;;0.07;100.00
51229;BME280;37304;52.216;6.874;2023-02-10T00:32:52;103203.09;;;0.09;100.00
51229;BME280;37304;52.216;6.874;2023-02-10T00:37:52;103202.81;;;0.18;100.00
51229;BME280;37304;52.216;6.874;2023-02-10T00:42:52;103200.66;;;0.10;100.00
51229;BME280;37304;52.216;6.874;2023-02-10T00:47:53;103208.13;;;0.07;100.00
51229;BME280;37304;52.216;6.874;2023-02-10T00:52:54;103219.00;;;0.05;100.00
51229;BME280;37304;52.216;6.874;2023-02-10T00:57:54;103212.84;;;0.01;100.00
51229;BME280;37304;52.216;6.874;2023-02-10T01:02:54;103214.50;;;0.01;100.00
51229;BME280;37304;52.216;6.874;2023-02-10T01:07:55;103216.38;;;0.03;100.00
51229;BME280;37304;52.216;6.874;2023-02-10T01:12:55;103215.16;;;-0.02;100.00
51229;BME280;37304;52.216;6.874;2023-02-10T01:17:56;103219.00;;;-0.09;100.00
51229;BME280;37304;52.216;6.874;2023-02-10T01:22:56;103224.69;;;-0.13;100.00
51229;BME280;37304;52.216;6.874;2023-02-10T01:27:57;103224.09;;;-0.22;100.00
51229;BME280;37304;52.216;6.874;2023-02-10T01:32:57;103231.56;;;-0.25;100.00
51229;BME280;37304;52.216;6.874;2023-02-10T01:37:58;103227.56;;;-0.34;100.00
51229;BME280;37304;52.216;6.874;2023-02-10T01:42:58;103240.94;;;-0.38;100.00
51229;BME280;37304;52.216;6.874;2023-02-10T01:47:59;103237.59;;;-0.37;100.00
51229;BME280;37304;52.216;6.874;2023-02-10T01:53:01;103236.41;;;-0.42;100.00
51229;BME280;37304;52.216;6.874;2023-02-10T01:58:04;103239.25;;;-0.51;100.00
51229;BME280;37304;52.216;6.874;2023-02-10T02:03:06;103236.56;;;-0.52;100.00
51229;BME280;37304;52.216;6.874;2023-02-10T02:08:11;103241.09;;;-0.48;100.00
51229;BME280;37304;52.216;6.874;2023-02-10T02:18:48;103239.81;;;-0.55;100.00
51229;BME280;37304;52.216;6.874;2023-02-10T02:29:29;103244.84;;;-0.43;100.00
51229;BME280;37304;52.216;6.874;2023-02-10T02:39:37;103246.16;;;-0.36;100.00
51229;BME280;37304;52.216;6.874;2023-02-10T02:44:37;103243.41;;;-0.39;100.00
51229;BME280;37304;52.216;6.874;2023-02-10T02:49:45;103241.88;;;-0.49;100.00
51229;BME280;37304;52.216;6.874;2023-02-10T02:54:58;103245.13;;;-0.52;100.00
51229;BME280;37304;52.216;6.874;2023-02-10T03:00:06;103258.47;;;-0.56;100.00
51229;BME280;37304;52.216;6.874;2023-02-10T03:05:10;103264.66;;;-0.52;100.00
51229;BME280;37304;52.216;6.874;2023-02-10T03:10:10;103261.25;;;-0.53;100.00
51229;BME280;37304;52.216;6.874;2023-02-10T03:15:11;103264.09;;;-0.48;100.00
51229;BME280;37304;52.216;6.874;2023-02-10T03:20:11;103258.31;;;-0.46;100.00
51229;BME280;37304;52.216;6.874;2023-02-10T03:25:12;103259.88;;;-0.48;100.00
51229;BME280;37304;52.216;6.874;2023-02-10T03:30:12;103256.84;;;-0.42;100.00
51229;BME280;37304;52.216;6.874;2023-02-10T03:35:12;103253.63;;;-0.39;100.00
51229;BME280;37304;52.216;6.874;2023-02-10T03:40:13;103256.97;;;-0.40;100.00
51229;BME280;37304;52.216;6.874;2023-02-10T03:45:13;103266.47;;;-0.38;100.00
51229;BME280;37304;52.216;6.874;2023-02-10T03:50:14;103276.13;;;-0.34;100.00
51229;BME280;37304;52.216;6.874;2023-02-10T03:55:14;103263.59;;;-0.31;100.00
51229;BME280;37304;52.216;6.874;2023-02-10T04:00:17;103252.59;;;-0.30;100.00
51229;BME280;37304;52.216;6.874;2023-02-10T04:05:18;103258.69;;;-0.27;100.00
51229;BME280;37304;52.216;6.874;2023-02-10T04:10:18;103257.97;;;-0.25;100.00
51229;BME280;37304;52.216;6.874;2023-02-10T04:15:20;103263.28;;;-0.22;100.00
51229;BME280;37304;52.216;6.874;2023-02-10T04:20:20;103269.19;;;-0.23;100.00
51229;BME280;37304;52.216;6.874;2023-02-10T04:25:21;103260.94;;;-0.19;100.00
51229;BME280;37304;52.216;6.874;2023-02-10T04:30:21;103272.06;;;-0.18;100.00
51229;BME280;37304;52.216;6.874;2023-02-10T04:35:21;103265.38;;;-0.16;100.00
51229;BME280;37304;52.216;6.874;2023-02-10T04:40:22;103274.34;;;-0.09;100.00
51229;BME280;37304;52.216;6.874;2023-02-10T04:45:22;103286.13;;;-0.11;100.00
51229;BME280;37304;52.216;6.874;2023-02-10T04:50:23;103289.28;;;-0.02;100.00
51229;BME280;37304;52.216;6.874;2023-02-10T04:55:23;103294.72;;;0.03;100.00
51229;BME280;37304;52.216;6.874;2023-02-10T05:00:24;103292.28;;;0.04;100.00
51229;BME280;37304;52.216;6.874;2023-02-10T05:05:25;103300.25;;;0.09;100.00
51229;BME280;37304;52.216;6.874;2023-02-10T05:10:25;103313.03;;;0.09;100.00
51229;BME280;37304;52.216;6.874;2023-02-10T05:15:25;103306.25;;;0.09;100.00
51229;BME280;37304;52.216;6.874;2023-02-10T05:20:26;103296.69;;;0.07;100.00
51229;BME280;37304;52.216;6.874;2023-02-10T05:25:26;103297.69;;;0.09;100.00
51229;BME280;37304;52.216;6.874;2023-02-10T05:30:26;103290.91;;;0.09;100.00
51229;BME280;37304;52.216;6.874;2023-02-10T05:35:27;103297.59;;;0.07;100.00
51229;BME280;37304;52.216;6.874;2023-02-10T05:40:28;103295.91;;;0.08;100.00
51229;BME280;37304;52.216;6.874;2023-02-10T05:45:29;103292.28;;;0.04;100.00
51229;BME280;37304;52.216;6.874;2023-02-10T05:50:29;103297.69;;;0.09;100.00
51229;BME280;37304;52.216;6.874;2023-02-10T05:55:29;103301.22;;;0.11;100.00
51229;BME280;37304;52.216;6.874;2023-02-10T06:00:30;103307.84;;;0.07;100.00
51229;BME280;37304;52.216;6.874;2023-02-10T06:05:30;103309.50;;;0.07;100.00
51229;BME280;37304;52.216;6.874;2023-02-10T06:10:30;103298.28;;;0.05;100.00
51229;BME280;37304;52.216;6.874;2023-02-10T06:15:31;103309.97;;;0.01;100.00
51229;BME280;37304;52.216;6.874;2023-02-10T06:20:31;103310.47;;;0.09;100.00
51229;BME280;37304;52.216;6.874;2023-02-10T06:25:31;103302.03;;;0.10;100.00
51229;BME280;37304;52.216;6.874;2023-02-10T06:30:33;103289.94;;;0.07;100.00
51229;BME280;37304;52.216;6.874;2023-02-10T06:35:34;103300.16;;;0.07;100.00
51229;BME280;37304;52.216;6.874;2023-02-10T06:40:34;103302.59;;;0.06;100.00
51229;BME280;37304;52.216;6.874;2023-02-10T06:45:35;103306.72;;;0.04;100.00
51229;BME280;37304;52.216;6.874;2023-02-10T06:50:35;103312.31;;;-0.02;100.00
51229;BME280;37304;52.216;6.874;2023-02-10T06:55:35;103318.91;;;-0.06;100.00
51229;BME280;37304;52.216;6.874;2023-02-10T07:00:36;103321.81;;;-0.13;100.00
51229;BME280;37304;52.216;6.874;2023-02-10T07:05:36;103332.63;;;-0.17;100.00
51229;BME280;37304;52.216;6.874;2023-02-10T07:10:37;103337.53;;;-0.20;100.00
51229;BME280;37304;52.216;6.874;2023-02-10T07:15:38;103347.53;;;-0.23;100.00
51229;BME280;37304;52.216;6.874;2023-02-10T07:20:38;103348.22;;;-0.26;100.00
51229;BME280;37304;52.216;6.874;2023-02-10T07:25:38;103350.88;;;-0.24;100.00
51229;BME280;37304;52.216;6.874;2023-02-10T07:30:39;103343.22;;;-0.24;100.00
51229;BME280;37304;52.216;6.874;2023-02-10T07:35:39;103334.78;;;-0.23;100.00
51229;BME280;37304;52.216;6.874;2023-02-10T07:40:39;103334.78;;;-0.23;100.00
51229;BME280;37304;52.216;6.874;2023-02-10T07:45:40;103333.97;;;-0.22;100.00
51229;BME280;37304;52.216;6.874;2023-02-10T07:50:40;103336.53;;;-0.22;100.00
51229;BME280;37304;52.216;6.874;2023-02-10T07:55:41;103351.50;;;-0.15;100.00
51229;BME280;37304;52.216;6.874;2023-02-10T08:00:41;103348.59;;;-0.08;100.00
51229;BME280;37304;52.216;6.874;2023-02-10T08:05:42;103339.19;;;0.05;100.00
51229;BME280;37304;52.216;6.874;2023-02-10T08:10:42;103360.88;;;0.23;100.00
51229;BME280;37304;52.216;6.874;2023-02-10T08:15:43;103372.50;;;0.32;100.00
51229;BME280;37304;52.216;6.874;2023-02-10T08:20:44;103373.41;;;0.46;100.00
51229;BME280;37304;52.216;6.874;2023-02-10T08:25:44;103378.06;;;0.51;100.00
51229;BME280;37304;52.216;6.874;2023-02-10T08:30:44;103381.44;;;0.77;100.00
51229;BME280;37304;52.216;6.874;2023-02-10T08:35:45;103383.22;;;0.78;100.00
51229;BME280;37304;52.216;6.874;2023-02-10T08:40:53;103373.94;;;0.67;100.00
51229;BME280;37304;52.216;6.874;2023-02-10T08:45:58;103394.69;;;0.58;100.00
51229;BME280;37304;52.216;6.874;2023-02-10T08:51:00;103379.06;;;0.53;100.00
51229;BME280;37304;52.216;6.874;2023-02-10T08:56:04;103374.53;;;0.63;100.00
51229;BME280;37304;52.216;6.874;2023-02-10T09:01:09;103378.59;;;0.72;100.00
51229;BME280;37304;52.216;6.874;2023-02-10T09:06:19;103377.41;;;0.81;100.00
51229;BME280;37304;52.216;6.874;2023-02-10T09:11:21;103358.19;;;0.87;100.00
51229;BME280;37304;52.216;6.874;2023-02-10T09:16:23;103355.94;;;0.92;100.00
51229;BME280;37304;52.216;6.874;2023-02-10T09:21:24;103355.13;;;1.07;100.00
51229;BME280;37304;52.216;6.874;2023-02-10T09:26:25;103363.50;;;1.18;100.00
51229;BME280;37304;52.216;6.874;2023-02-10T09:31:25;103356.41;;;1.27;100.00
51229;BME280;37304;52.216;6.874;2023-02-10T09:36:26;103365.38;;;1.62;100.00
51229;BME280;37304;52.216;6.874;2023-02-10T09:57:18;103351.34;;;2.74;100.00
51229;BME280;37304;52.216;6.874;2023-02-10T10:02:32;103342.09;;;2.46;100.00
51229;BME280;37304;52.216;6.874;2023-02-10T10:07:35;103338.34;;;2.56;100.00
51229;BME280;37304;52.216;6.874;2023-02-10T10:12:39;103349.25;;;3.13;100.00
51229;BME280;37304;52.216;6.874;2023-02-10T10:22:54;103339.00;;;4.31;100.00
51229;BME280;37304;52.216;6.874;2023-02-10T10:28:17;103341.47;;;4.82;100.00
51229;BME280;37304;52.216;6.874;2023-02-10T10:44:28;103350.09;;;5.01;100.00
51229;BME280;37304;52.216;6.874;2023-02-10T10:49:30;103350.16;;;5.60;100.00
51229;BME280;37304;52.216;6.874;2023-02-10T10:54:31;103336.16;;;5.35;100.00
51229;BME280;37304;52.216;6.874;2023-02-10T10:59:36;103328.72;;;5.41;100.00
51229;BME280;37304;52.216;6.874;2023-02-10T11:04:42;103324.31;;;6.61;100.00
51229;BME280;37304;52.216;6.874;2023-02-10T11:10:02;103321.94;;;6.66;100.00
51229;BME280;37304;52.216;6.874;2023-02-10T11:15:15;103326.41;;;7.38;100.00
51229;BME280;37304;52.216;6.874;2023-02-10T11:20:30;103325.59;;;6.94;100.00
51229;BME280;37304;52.216;6.874;2023-02-10T11:25:31;103321.44;;;5.72;100.00
51229;BME280;37304;52.216;6.874;2023-02-10T11:30:38;103310.38;;;5.54;100.00
51229;BME280;37304;52.216;6.874;2023-02-10T11:35:47;103299.19;;;4.96;100.00
51229;BME280;37304;52.216;6.874;2023-02-10T11:40:57;103294.09;;;4.60;100.00
51229;BME280;37304;52.216;6.874;2023-02-10T11:46:00;103290.03;;;4.47;100.00
51229;BME280;37304;52.216;6.874;2023-02-10T11:51:15;103290.63;;;4.42;100.00
51229;BME280;37304;52.216;6.874;2023-02-10T11:56:29;103277.78;;;4.25;100.00
51229;BME280;37304;52.216;6.874;2023-02-10T12:02:12;103263.66;;;4.17;100.00
51229;BME280;37304;52.216;6.874;2023-02-10T12:23:15;103266.66;;;4.43;100.00
51229;BME280;37304;52.216;6.874;2023-02-10T12:39:04;103250.81;;;4.17;100.00
51229;BME280;37304;52.216;6.874;2023-02-10T12:44:20;103259.72;;;4.23;100.00
51229;BME280;37304;52.216;6.874;2023-02-10T12:54:52;103247.63;;;4.59;100.00
51229;BME280;37304;52.216;6.874;2023-02-10T13:00:09;103236.53;;;4.60;100.00
51229;BME280;37304;52.216;6.874;2023-02-10T13:05:18;103228.22;;;4.65;100.00
51229;BME280;37304;52.216;6.874;2023-02-10T13:10:33;103223.06;;;4.65;100.00
51229;BME280;37304;52.216;6.874;2023-02-10T13:15:39;103222.38;;;4.88;100.00
51229;BME280;37304;52.216;6.874;2023-02-10T13:21:09;103232.22;;;5.98;100.00
51229;BME280;37304;52.216;6.874;2023-02-10T13:26:23;103225.72;;;7.20;100.00
51229;BME280;37304;52.216;6.874;2023-02-10T13:36:36;103221.66;;;6.80;100.00
51229;BME280;37304;52.216;6.874;2023-02-10T13:41:44;103211.34;;;6.57;100.00
51229;BME280;37304;52.216;6.874;2023-02-10T13:46:52;103194.28;;;6.85;100.00
51229;BME280;37304;52.216;6.874;2023-02-10T13:52:07;103191.25;;;5.85;100.00
51229;BME280;37304;52.216;6.874;2023-02-10T13:57:27;103169.53;;;5.79;100.00
51229;BME280;37304;52.216;6.874;2023-02-10T14:02:27;103164.00;;;5.49;100.00
51229;BME280;37304;52.216;6.874;2023-02-10T14:12:29;103151.16;;;5.50;100.00
51229;BME280;37304;52.216;6.874;2023-02-10T14:17:29;103160.09;;;5.59;100.00
51229;BME280;37304;52.216;6.874;2023-02-10T14:22:38;103149.97;;;5.85;100.00
51229;BME280;37304;52.216;6.874;2023-02-10T14:27:40;103162.63;;;5.78;100.00
51229;BME280;37304;52.216;6.874;2023-02-10T14:32:44;103146.91;;;5.72;100.00
51229;BME280;37304;52.216;6.874;2023-02-10T14:37:49;103132.59;;;5.59;100.00
51229;BME280;37304;52.216;6.874;2023-02-10T14:42:50;103120.66;;;5.61;100.00
51229;BME280;37304;52.216;6.874;2023-02-10T14:47:52;103117.88;;;5.57;100.00
51229;BME280;37304;52.216;6.874;2023-02-10T14:53:01;103125.06;;;5.64;100.00
51229;BME280;37304;52.216;6.874;2023-02-10T15:03:11;103108.50;;;5.59;100.00
51229;BME280;37304;52.216;6.874;2023-02-10T15:08:16;103122.22;;;5.58;100.00
51229;BME280;37304;52.216;6.874;2023-02-10T15:14:05;103112.84;;;5.60;100.00
51229;BME280;37304;52.216;6.874;2023-02-10T15:18:47;103115.38;;;5.58;100.00
51229;BME280;37304;52.216;6.874;2023-02-10T15:23:49;103122.97;;;5.55;100.00
51229;BME280;37304;52.216;6.874;2023-02-10T15:29:04;103118.69;;;5.56;100.00
51229;BME280;37304;52.216;6.874;2023-02-10T15:34:34;103109.00;;;5.50;100.00
51229;BME280;37304;52.216;6.874;2023-02-10T15:39:36;103100.25;;;5.46;100.00
51229;BME280;37304;52.216;6.874;2023-02-10T15:44:43;103100.94;;;5.42;100.00
51229;BME280;37304;52.216;6.874;2023-02-10T15:49:51;103105.03;;;5.37;100.00
51229;BME280;37304;52.216;6.874;2023-02-10T15:54:53;103096.44;;;5.36;100.00
51229;BME280;37304;52.216;6.874;2023-02-10T15:59:55;103100.31;;;5.27;100.00
51229;BME280;37304;52.216;6.874;2023-02-10T16:04:55;103092.38;;;5.22;100.00
51229;BME280;37304;52.216;6.874;2023-02-10T16:09:56;103080.56;;;5.27;100.00
51229;BME280;37304;52.216;6.874;2023-02-10T16:15:00;103089.22;;;5.29;100.00
51229;BME280;37304;52.216;6.874;2023-02-10T16:20:01;103091.28;;;5.36;100.00
51229;BME280;37304;52.216;6.874;2023-02-10T16:25:18;103095.53;;;5.36;100.00
51229;BME280;37304;52.216;6.874;2023-02-10T16:30:25;103079.00;;;5.31;100.00
51229;BME280;37304;52.216;6.874;2023-02-10T16:35:26;103083.34;;;5.32;100.00
51229;BME280;37304;52.216;6.874;2023-02-10T16:40:29;103049.00;;;5.33;100.00
51229;BME280;37304;52.216;6.874;2023-02-10T16:45:31;103064.34;;;5.30;100.00
51229;BME280;37304;52.216;6.874;2023-02-10T16:50:35;103047.72;;;5.23;100.00
51229;BME280;37304;52.216;6.874;2023-02-10T16:55:38;103062.00;;;5.15;100.00
51229;BME280;37304;52.216;6.874;2023-02-10T17:00:39;103022.03;;;5.03;100.00
51229;BME280;37304;52.216;6.874;2023-02-10T17:05:40;103019.69;;;4.88;100.00
51229;BME280;37304;52.216;6.874;2023-02-10T17:10:41;103047.63;;;4.79;100.00
51229;BME280;37304;52.216;6.874;2023-02-10T17:15:41;103042.28;;;4.74;100.00
51229;BME280;37304;52.216;6.874;2023-02-10T17:20:42;103052.50;;;4.73;100.00
51229;BME280;37304;52.216;6.874;2023-02-10T17:25:42;103068.59;;;4.67;100.00
51229;BME280;37304;52.216;6.874;2023-02-10T17:30:42;103082.13;;;4.63;100.00
51229;BME280;37304;52.216;6.874;2023-02-10T17:35:43;103106.44;;;4.68;100.00
51229;BME280;37304;52.216;6.874;2023-02-10T17:40:46;103096.31;;;4.73;100.00
51229;BME280;37304;52.216;6.874;2023-02-10T17:45:49;103088.94;;;4.80;100.00
51229;BME280;37304;52.216;6.874;2023-02-10T17:50:49;103074.34;;;4.81;100.00
51229;BME280;37304;52.216;6.874;2023-02-10T17:55:50;103066.56;;;4.79;100.00
51229;BME280;37304;52.216;6.874;2023-02-10T18:00:51;103045.94;;;4.79;100.00
51229;BME280;37304;52.216;6.874;2023-02-10T18:05:53;103041.78;;;4.83;100.00
51229;BME280;37304;52.216;6.874;2023-02-10T18:10:56;103059.91;;;4.85;100.00
51229;BME280;37304;52.216;6.874;2023-02-10T18:15:56;103046.25;;;4.87;100.00
51229;BME280;37304;52.216;6.874;2023-02-10T18:20:56;103054.88;;;4.88;100.00
51229;BME280;37304;52.216;6.874;2023-02-10T18:25:57;103056.56;;;4.87;100.00
51229;BME280;37304;52.216;6.874;2023-02-10T18:31:01;103049.72;;;4.88;100.00
51229;BME280;37304;52.216;6.874;2023-02-10T18:36:08;103052.31;;;4.88;100.00
51229;BME280;37304;52.216;6.874;2023-02-10T18:41:09;103050.53;;;4.87;100.00
51229;BME280;37304;52.216;6.874;2023-02-10T18:46:09;103059.09;;;4.86;100.00
51229;BME280;37304;52.216;6.874;2023-02-10T18:51:10;103055.63;;;4.85;100.00
51229;BME280;37304;52.216;6.874;2023-02-10T18:56:14;103054.81;;;4.86;100.00
51229;BME280;37304;52.216;6.874;2023-02-10T19:01:17;103062.63;;;4.88;100.00
51229;BME280;37304;52.216;6.874;2023-02-10T19:06:19;103067.63;;;4.85;100.00
51229;BME280;37304;52.216;6.874;2023-02-10T19:11:20;103074.59;;;4.87;100.00
51229;BME280;37304;52.216;6.874;2023-02-10T19:16:20;103071.97;;;4.86;100.00
51229;BME280;37304;52.216;6.874;2023-02-10T19:21:21;103075.50;;;4.88;100.00
51229;BME280;37304;52.216;6.874;2023-02-10T19:26:22;103081.66;;;4.91;100.00
51229;BME280;37304;52.216;6.874;2023-02-10T19:31:22;103069.53;;;4.89;100.00
51229;BME280;37304;52.216;6.874;2023-02-10T19:36:23;103075.63;;;4.91;100.00
51229;BME280;37304;52.216;6.874;2023-02-10T19:41:24;103084.09;;;4.88;100.00
51229;BME280;37304;52.216;6.874;2023-02-10T19:46:26;103086.78;;;4.91;100.00
51229;BME280;37304;52.216;6.874;2023-02-10T19:51:26;103072.28;;;4.93;100.00
51229;BME280;37304;52.216;6.874;2023-02-10T19:56:27;103079.06;;;4.91;100.00
51229;BME280;37304;52.216;6.874;2023-02-10T20:01:27;103062.66;;;4.89;100.00
51229;BME280;37304;52.216;6.874;2023-02-10T20:06:33;103065.38;;;4.92;100.00
51229;BME280;37304;52.216;6.874;2023-02-10T20:11:34;103052.44;;;4.91;100.00
51229;BME280;37304;52.216;6.874;2023-02-10T20:16:39;103031.75;;;4.89;100.00
51229;BME280;37304;52.216;6.874;2023-02-10T20:21:41;103048.91;;;4.89;100.00
51229;BME280;37304;52.216;6.874;2023-02-10T20:26:41;103051.66;;;4.93;100.00
51229;BME280;37304;52.216;6.874;2023-02-10T20:31:42;103052.63;;;4.95;100.00
51229;BME280;37304;52.216;6.874;2023-02-10T20:36:48;103053.38;;;4.93;100.00
51229;BME280;37304;52.216;6.874;2023-02-10T20:41:58;103062.88;;;4.94;100.00
51229;BME280;37304;52.216;6.874;2023-02-10T20:47:01;103075.88;;;4.97;100.00
51229;BME280;37304;52.216;6.874;2023-02-10T20:52:02;103078.38;;;4.95;100.00
51229;BME280;37304;52.216;6.874;2023-02-10T20:57:03;103088.84;;;4.99;100.00
51229;BME280;37304;52.216;6.874;2023-02-10T21:02:03;103089.84;;;5.02;100.00
51229;BME280;37304;52.216;6.874;2023-02-10T21:07:04;103086.31;;;5.00;100.00
51229;BME280;37304;52.216;6.874;2023-02-10T21:12:05;103076.00;;;5.00;100.00
51229;BME280;37304;52.216;6.874;2023-02-10T21:17:08;103070.03;;;5.01;100.00
51229;BME280;37304;52.216;6.874;2023-02-10T21:22:09;103074.25;;;4.99;100.00
51229;BME280;37304;52.216;6.874;2023-02-10T21:27:09;103066.72;;;5.04;100.00
51229;BME280;37304;52.216;6.874;2023-02-10T21:32:09;103072.00;;;5.07;100.00
51229;BME280;37304;52.216;6.874;2023-02-10T21:37:10;103060.00;;;5.07;100.00
51229;BME280;37304;52.216;6.874;2023-02-10T21:42:10;103069.34;;;5.05;100.00
51229;BME280;37304;52.216;6.874;2023-02-10T21:47:11;103064.31;;;5.08;100.00
51229;BME280;37304;52.216;6.874;2023-02-10T21:52:14;103064.28;;;5.07;100.00
51229;BME280;37304;52.216;6.874;2023-02-10T21:57:15;103064.47;;;5.12;100.00
51229;BME280;37304;52.216;6.874;2023-02-10T22:02:18;103059.38;;;5.13;100.00
51229;BME280;37304;52.216;6.874;2023-02-10T22:07:18;103054.22;;;5.13;100.00
51229;BME280;37304;52.216;6.874;2023-02-10T22:12:18;103048.31;;;5.16;100.00
51229;BME280;37304;52.216;6.874;2023-02-10T22:17:23;103050.97;;;5.17;100.00
51229;BME280;37304;52.216;6.874;2023-02-10T22:22:24;103044.03;;;5.16;100.00
51229;BME280;37304;52.216;6.874;2023-02-10T22:27:24;103050.06;;;5.17;100.00
51229;BME280;37304;52.216;6.874;2023-02-10T22:32:25;103051.81;;;5.18;100.00
51229;BME280;37304;52.216;6.874;2023-02-10T22:37:25;103049.25;;;5.18;100.00
51229;BME280;37304;52.216;6.874;2023-02-10T22:42:26;103045.00;;;5.18;100.00
51229;BME280;37304;52.216;6.874;2023-02-10T22:47:26;103031.91;;;5.14;100.00
51229;BME280;37304;52.216;6.874;2023-02-10T22:52:30;103037.16;;;5.17;100.00
51229;BME280;37304;52.216;6.874;2023-02-10T22:57:31;103042.41;;;5.18;100.00
51229;BME280;37304;52.216;6.874;2023-02-10T23:02:31;103033.78;;;5.18;100.00
51229;BME280;37304;52.216;6.874;2023-02-10T23:07:31;103031.19;;;5.18;100.00
51229;BME280;37304;52.216;6.874;2023-02-10T23:12:32;103004.44;;;5.14;100.00
51229;BME280;37304;52.216;6.874;2023-02-10T23:17:32;103018.13;;;5.13;100.00
51229;BME280;37304;52.216;6.874;2023-02-10T23:22:33;103017.19;;;5.11;100.00
51229;BME280;37304;52.216;6.874;2023-02-10T23:27:34;103013.81;;;5.12;100.00
51229;BME280;37304;52.216;6.874;2023-02-10T23:32:34;103008.78;;;5.15;100.00
51229;BME280;37304;52.216;6.874;2023-02-10T23:37:34;103007.84;;;5.13;100.00
51229;BME280;37304;52.216;6.874;2023-02-10T23:42:35;103020.84;;;5.16;100.00
51229;BME280;37304;52.216;6.874;2023-02-10T23:47:35;103017.63;;;5.22;100.00
51229;BME280;37304;52.216;6.874;2023-02-10T23:52:36;102998.59;;;5.18;100.00
51229;BME280;37304;52.216;6.874;2023-02-10T23:57:36;102993.47;;;5.20;100.00
